Date,TemperatureHighF,TemperatureAvgF,TemperatureLowF,DewpointHighF,DewpointAvgF,DewpointLowF,HumidityHigh,HumidityAvg,HumidityLow,PressureMaxIn,PressureMinIn,WindSpeedMaxMPH,WindSpeedAvgMPH,GustSpeedMaxMPH,PrecipitationSumIn
2013-9-1,83.4,70.3,63.1,70.4,65.4,61.7,96,85,60,0.00,40.00,9,1,11,0.22
2013-9-2,81.1,69.4,62.5,69.9,65.1,61.0,96,87,62,18.17,18.17,5,0,6,0.07
2013-9-3,80.1,68.5,61.1,67.5,62.7,58.6,95,83,60,0.00,40.00,7,1,7,0.16
2013-9-4,84.5,67.8,58.0,68.3,61.1,56.4,96,82,45,31.68,20.69,11,0,11,0.00
2013-9-5,82.0,67.2,58.0,65.9,60.1,50.6,98,81,34,31.69,29.02,5,0,8,0.00
2013-9-6,82.2,64.9,51.2,65.7,57.9,49.5,95,80,50,30.11,29.88,7,0,7,0.00
2013-9-7,80.8,66.0,56.0,66.1,60.2,54.6,96,83,57,32.49,23.39,9,0,9,0.00
2013-9-8,78.4,66.0,54.9,67.0,60.7,53.4,96,84,62,29.74,27.09,4,0,5,0.00
2013-9-9,83.2,67.2,57.5,68.5,61.9,56.1,96,84,55,31.80,17.49,6,0,6,0.00
2013-9-10,85.1,68.4,56.8,68.7,61.9,55.4,96,82,55,0.00,40.00,5,0,7,0.00
2013-9-11,82.7,68.4,56.0,68.3,62.2,54.0,94,82,57,30.46,22.65,8,0,8,0.00
2013-9-12,77.1,66.0,59.9,68.4,62.8,58.5,96,90,67,30.46,18.52,7,0,7,0.11
2013-9-13,74.7,63.1,52.2,62.5,56.7,49.4,96,81,55,30.77,18.52,13,1,13,0.04
2013-9-14,75.1,57.7,45.0,57.8,51.3,43.4,95,81,53,30.81,30.77,3,0,5,0.00
2013-9-15,75.8,59.7,46.1,59.6,53.4,44.5,95,81,55,32.39,17.93,12,1,12,0.00
2013-9-16,77.9,62.8,52.6,63.6,56.8,51.2,96,83,56,17.84,17.84,7,1,8,0.00
2013-9-17,70.8,62.6,59.5,59.7,57.0,54.9,93,82,66,17.84,17.84,4,0,5,0.00
2013-9-18,67.0,60.8,56.0,59.1,55.9,52.5,93,84,70,17.84,17.84,7,0,7,0.00
2013-9-19,76.6,63.1,53.8,67.1,58.5,52.1,95,86,63,17.84,17.84,8,0,8,0.04
2013-9-20,79.8,65.7,55.5,66.0,59.9,54.1,96,83,56,32.35,28.42,8,0,8,0.01
2013-9-21,67.7,64.0,57.2,63.1,60.0,55.6,95,87,77,20.51,20.51,6,1,7,1.17
2013-9-22,71.7,59.0,50.6,56.6,53.0,48.5,95,82,55,24.52,20.51,8,0,8,0.00
2013-9-23,76.1,58.4,46.9,61.0,52.7,45.5,96,83,52,30.18,30.18,5,0,9,0.00
2013-9-24,76.1,60.3,47.1,62.8,54.9,45.5,96,84,60,30.18,30.18,8,0,8,0.00
2013-9-25,63.1,59.8,56.9,60.7,57.8,55.2,95,93,88,30.18,18.36,4,0,4,1.47
2013-9-26,71.7,60.6,53.9,61.0,56.4,51.7,96,87,61,31.46,18.36,10,0,10,0.04
2013-9-27,74.3,59.6,52.1,59.4,53.9,50.7,95,83,51,29.48,18.50,5,0,6,0.00
2013-9-28,71.0,57.4,46.5,57.9,52.1,44.9,95,84,57,23.16,18.50,9,0,9,0.00
2013-9-29,70.6,58.5,52.3,57.8,52.9,50.3,94,83,54,17.55,17.55,6,0,9,0.00
2013-9-30,71.7,58.6,48.5,58.9,53.3,46.9,95,84,55,31.12,28.62,4,0,6,0.00